x

8454049 - Quonset Point, Ri (qptr1) Weather Station

5:36 - Tue 25th Nov 2014 All times are EST. -5 hours from GMT.

  • Wind
    10mph, 13mph gusts
  • Sea Temp 48°f
  • Ar Temp 53°f
  • Sea Pressure 1015.6mb
  • 8454049 - Quonset Point, Ri
  • 8454049 - Quonset Point, Ri

More Historic Weather Station data

Upgrade to MSW Pro to gain access to the past 30 days of data for over 8000 Wavebouys and Weather Stations around the globe.

Join Pro

Comparision Forecast

View Surf forecast
   
Ter 11/25 5:36 10 13 mph 1015.6mb 48f 53f
5:30 10 11 mph 1015.4mb 48f 54f
5:24 9 11 mph 1015.2mb 48f 54f
5:18 10 11 mph 1015mb 48f 54f
5:12 10 14 mph 1015mb 48f 54f
5:06 10 13 mph 1014.9mb 48f 54f
5:00 10 13 mph 1014.6mb 48f 54f
4:54 10 13 mph 1014.5mb 48f 54f
4:48 10 13 mph 1014.7mb 48f 55f
4:42 10 13 mph 1014.5mb 48f 55f
4:36 10 16 mph 1014.4mb 48f 55f
4:30 14 16 mph 1014.5mb 48f 56f
4:24 11 14 mph 1014.3mb 48f 55f
4:18 10 13 mph 1014.1mb 48f 55f
4:12 9 11 mph 1014mb 48f 55f
4:06 9 11 mph 1013.8mb 48f 56f
4:00 10 13 mph 1013.5mb 48f 56f
3:54 8 13 mph 1013.4mb 48f 56f
3:48 9 11 mph 1013.4mb 48f 57f
3:42 9
mph
1013.5mb 48f 56f
3:36 9 10 mph 1013.3mb 48f 57f
3:30 9 10 mph 1013.3mb 48f 57f
3:24 8 10 mph 1013.1mb 48f 57f
3:18 9 13 mph 1012.8mb 48f 57f
3:12 8 14 mph 1013.3mb 48f 57f
3:06 10 13 mph 1013.3mb 48f 57f
3:00 8 10 mph 1013mb 48f 57f
2:54 11 15 mph 1013.3mb 48f 58f
2:48 14 17 mph 1013.3mb 48f 58f
2:42 15 18 mph 1013.2mb 48f 59f
2:36 9 11 mph 1013.1mb 48f 57f
2:30 11 15 mph 1012.9mb 48f 58f
2:24 10 11 mph 1012.8mb 48f 58f
2:18 10 13 mph 1013mb 48f 58f
2:12 11 14 mph 1012.9mb 48f 59f
2:06 11 16 mph 1013mb 48f 58f
2:00 13 16 mph 1012.9mb 48f 58f
1:54 10 16 mph 1012.8mb 48f 57f
1:48 13 18 mph 1012.9mb 48f 58f
1:42 17 20 mph 1012.7mb 48f 59f
1:36 15 18 mph 1012.9mb 48f 59f
1:30 16 18 mph 1012.9mb 48f 59f
1:24 16 18 mph 1012.6mb 48f 59f
1:18 11 14 mph 1012.4mb 48f 58f
1:12 13 16 mph 1012.6mb 48f 58f
1:06 14 17 mph 1012.6mb 48f 59f
12:54 17 20 mph 1012.5mb 48f 60f
12:48 16 18 mph 1012.5mb 48f 60f
12:36 13 20 mph 1012.5mb 48f 59f
12:30 16 18 mph 1012.6mb 48f 59f
12:24 16 21 mph 1012.7mb 48f 60f
12:18 14 18 mph 1012.7mb 48f 59f
12:12 15 24 mph 1012.7mb 48f 60f
12:06 22 26 mph 1012.9mb 48f 61f
12:00 13 17 mph 1013.2mb 48f 60f
11:54 11 16 mph 1013.1mb 48f 60f
11:42 13 16 mph 1012.9mb 48f 61f
11:36 8 10 mph 1013mb 48f 61f
11:30 9 13 mph 1012.8mb 48f 61f
11:24 9 14 mph 1012.8mb 48f 61f
11:18 10 13 mph 1012.8mb 48f 62f
11:12 10 15 mph 1012.6mb 48f 61f
11:06 11 14 mph 1012.6mb 48f 62f
11:00 8 10 mph 1012.7mb 48f 59f
10:54 10 11 mph 1012.7mb 48f 58f
10:48 13 15 mph 1012.6mb 48f 60f
10:42 11 14 mph 1012.6mb 48f 61f
10:36 9 10 mph 1012.4mb 48f 61f
10:30 8 11 mph 1012.3mb 48f 60f
10:24 9 13 mph 1012.2mb 48f 60f
10:18 10 13 mph 1012.2mb 48f 61f
10:12 10 14 mph 1012.2mb 48f 60f
10:06 9 13 mph 1012.2mb 48f 60f
10:00 9 10 mph 1012.3mb 48f 60f
9:54 8 13 mph 1012.3mb 48f 60f
9:48 8 11 mph 1012.4mb 48f 60f
9:42 8 9 mph 1012.3mb 48f 61f
9:36 6 8 mph 1012.3mb 48f 60f
9:30 6 8 mph 1012.3mb 48f 60f
9:24 7
mph
1012.2mb 48f 60f
9:18 6 8 mph - - -
9:12 6 7 mph - - -
9:06 6 7 mph - - -
9:00 5
mph
1011.8mb 48f 58f
8:54 5 6 mph 1011.9mb 48f 56f
8:48 5 6 mph 1011.7mb 48f 56f
8:42 6 7 mph 1011.6mb 49f 56f
8:36 7 8 mph 1011.5mb 48f 56f
8:30 7 8 mph 1011.4mb 48f 57f
8:24 7 8 mph 1011.3mb 48f 57f
8:18 7 9 mph 1011.3mb 48f 58f
8:12 9
mph
1011.5mb 48f 57f
8:06 8 10 mph 1011.5mb 48f 57f
8:00 8 9 mph 1011.4mb 48f 57f
7:54 8 11 mph 1011.5mb 48f 57f
7:48 10 11 mph 1011.5mb 48f 57f
7:42 10 11 mph 1011.3mb 48f 57f
7:36 9 11 mph 1011.1mb 48f 57f
7:30 10 13 mph 1011.1mb 48f 57f
7:24 10 11 mph 1011mb 48f 57f
7:18 9 11 mph 1010.9mb 48f 57f
7:12 9 11 mph 1011mb 48f 57f
7:06 9 13 mph 1010.9mb 48f 57f
7:00 10 13 mph 1010.9mb 48f 57f
6:54 9 11 mph 1010.7mb 48f 57f
6:48 9 10 mph 1010.4mb 48f 56f
6:42 9 13 mph 1010.3mb 48f 56f
6:36 10 11 mph 1010.3mb 48f 57f
6:30 9 14 mph 1010.4mb 48f 57f
6:24 10 11 mph 1010.5mb 48f 57f
6:18 10 11 mph 1010.4mb 48f 57f
6:12 11 13 mph 1010.4mb 48f 57f
6:06 11 13 mph 1010.3mb 48f 57f
6:00 10 11 mph 1010.2mb 48f 57f
5:54 10 11 mph 1010.1mb 48f 57f
5:48 10 11 mph 1010.1mb 48f 57f
5:42 11 13 mph 1009.9mb 48f 57f
5:36 11 14 mph 1009.8mb 48f 57f
5:30 11 17 mph 1009.7mb 48f 58f
5:24 13 14 mph 1009.8mb 48f 57f
5:18 11 15 mph 1009.6mb 48f 57f
5:12 15 17 mph 1009.7mb 48f 57f
5:06 14 17 mph 1009.5mb 48f 57f
5:00 14 21 mph 1009.3mb 48f 57f
4:54 16 20 mph 1009.1mb 48f 58f
4:48 16 18 mph 1009mb 48f 57f
4:42 16 18 mph 1008.9mb 48f 58f
4:36 14 17 mph 1008.7mb 48f 57f
4:30 14 18 mph 1008.7mb 48f 57f
4:24 15 16 mph 1008.5mb 48f 57f
4:18 16 17 mph 1008.4mb 48f 57f
4:12 13 17 mph 1008.4mb 48f 57f
4:06 11 13 mph 1008.6mb 48f 57f
4:00 9 14 mph 1008.6mb 48f 56f
3:54 10 13 mph 1008.5mb 48f 57f
3:48 9 11 mph 1007.9mb 48f 57f
3:42 8 9 mph 1007.8mb 48f 57f
3:36 9 10 mph 1007.7mb 48f 56f
3:30 10 13 mph 1007.9mb - -
3:24 10 14 mph 1007.8mb 48f 57f
3:18 14 15 mph 1007.9mb 48f 57f
3:12 14 17 mph 1007.9mb 48f 57f
3:06 14 17 mph 1007.8mb 48f 57f
3:00 15 18 mph 1007.5mb 48f 57f
2:54 15 22 mph 1007.5mb 48f 57f
2:48 17 21 mph 1007.6mb 48f 57f
2:42 18 24 mph 1007.6mb 48f 57f
2:36 18 25 mph 1007.6mb 48f 57f
2:30 16 20 mph 1007.5mb 48f 57f
2:24 16 22 mph 1007.4mb 48f 57f
2:18 16 18 mph 1007.6mb 48f 57f
2:12 13 16 mph 1007.7mb 48f 56f
2:06 15 18 mph 1007.7mb 48f 57f
2:00 15 20 mph 1007.6mb 48f 57f
1:54 14 18 mph 1007.4mb 48f 57f
1:48 14 17 mph 1007.4mb 48f 57f
1:42 17 22 mph 1007.4mb 48f 57f
1:36 15 22 mph 1007.4mb 48f 57f
1:30 21 24 mph 1007.3mb 48f 58f
1:18 18 21 mph 1007.4mb 48f 58f
1:06 18 22 mph 1007.3mb 48f 58f
1:00 16 21 mph 1007.2mb 48f 58f
12:54 13 16 mph 1007.2mb 48f 56f
12:48 15 18 mph 1007.2mb 48f 57f
12:42 15 17 mph 1007.2mb 48f 57f
12:36 14 16 mph 1007mb 48f 58f
12:30 14 17 mph 1006.7mb 48f 58f
12:24 14 18 mph 1006.7mb 48f 58f
12:12 15 18 mph 1006.6mb 48f 58f
12:06 16 18 mph 1006.5mb 48f 58f
12:00 17 21 mph 1006.6mb 48f 59f
Seg 11/24 11:54 15 20 mph 1006.7mb 48f 58f
11:48 16 20 mph 1006.5mb 48f 58f
11:42 15 17 mph 1006.3mb 48f 58f
11:36 15 20 mph 1006.1mb 48f 58f
11:30 17 21 mph 1006.2mb 48f 58f
11:24 15 21 mph 1006.3mb 48f 58f
11:18 16 18 mph 1006.4mb 48f 58f
11:12 16 21 mph 1006.3mb 48f 58f
11:06 15 22 mph 1006.2mb 48f 58f
11:00 20 23 mph 1006.2mb 48f 59f
10:48 20 21 mph 1006.4mb 48f 58f
10:42 18 22 mph 1006.3mb 48f 58f
10:36 20 22 mph 1006.3mb 48f 58f
10:24 16 21 mph 1006.3mb 48f 58f
10:18 16 21 mph - - -
10:06 16 18 mph 1006.1mb 48f 58f
10:00 17 20 mph 1006.2mb 48f 58f
9:48 15 21 mph 1006.2mb 48f 58f
9:42 22 24 mph 1006.1mb 48f 59f
9:36 16 21 mph 1006.1mb 48f 58f
9:30 18 22 mph 1006mb 48f 59f
9:24 16 22 mph 1006mb 48f 58f
9:18 17 23 mph - - -
9:06 20 23 mph 1005.8mb 48f 59f
9:00 21 24 mph 1005.7mb 48f 59f
8:54 22 29 mph 1005.7mb 48f 59f
8:48 18 25 mph - - -
8:42 21 26 mph 1005.7mb 48f 59f
8:36 21 25 mph 1005.6mb 48f 59f
8:30 25 31 mph 1005.6mb 48f 60f
8:24 23 30 mph 1005.6mb 48f 59f
8:18 25 33 mph 1005.6mb 48f 59f
8:12 25 29 mph 1005.5mb 48f 60f
8:06 23 31 mph 1005.4mb 48f 59f
8:00 25 32 mph 1005.3mb 48f 59f
7:54 25 33 mph 1005.3mb 48f 59f
7:48 30 36 mph 1005.3mb 48f 60f
7:42 25 31 mph 1005.4mb 48f 59f
7:36 26 32 mph 1005.3mb 48f 60f
7:30 28 34 mph 1005.2mb 48f 59f
7:24 30 36 mph 1005.2mb 48f 60f
7:18 28 32 mph 1005.2mb 48f 60f
7:12 29 37 mph 1005.2mb 48f 60f
7:06 30 38 mph 1005.1mb 47f 60f
7:00 32 43 mph 1005mb 47f 60f
6:54 29 40 mph 1004.9mb 47f 60f
6:48 30 39 mph 1004.9mb 47f 60f
6:42 30 39 mph 1004.8mb 47f 59f
6:36 30 39 mph 1004.8mb 47f 59f
6:30 31 39 mph 1004.6mb 47f 59f
6:24 31 41 mph 1004.5mb 47f 60f
6:18 33 43 mph 1004.3mb 47f 60f
6:12 32 43 mph 1004.2mb 47f 60f
6:06 28 37 mph 1004.3mb 47f 59f
6:00 31 41 mph 1004.1mb 47f 60f
5:54 29 34 mph 1004mb 47f 60f
5:48 30 38 mph 1004mb 47f 59f
5:42 32 43 mph 1003.9mb 47f 60f
5:36 26 37 mph 1004mb 47f 59f
5:30 26 34 mph 1004mb 47f 59f
5:24 30 40 mph 1004mb 47f 60f
5:18 31 37 mph 1003.9mb 47f 61f
5:12 34 40 mph 1003.9mb 47f 61f
5:00 26 36 mph 1003.7mb 47f 60f
4:54 26 36 mph 1003.6mb 47f 60f
4:48 31 34 mph 1003.5mb 47f 60f
4:36 31 37 mph 1003.3mb 47f 60f
4:24 30 39 mph 1003.2mb 47f 60f
4:18 29 38 mph 1003.2mb 47f 60f
4:12 26 34 mph 1003.2mb 47f 60f
4:00 31 39 mph 1003.2mb 47f 61f
3:48 31 38 mph 1003.2mb 47f 60f
3:36 30 34 mph 1003.1mb 47f 61f
3:30 25 31 mph 1003.2mb 47f 61f
3:24 30 38 mph 1003.3mb 47f 61f
3:18 30 37 mph 1003.3mb 47f 61f
3:12 24 32 mph 1003.3mb 47f 60f
3:06 28 33 mph 1003.4mb 47f 60f
3:00 26 33 mph 1003.3mb 47f 61f
2:54 29 34 mph 1003.3mb 47f 61f
2:48 30 39 mph 1003.4mb 47f 62f
2:42 31 38 mph 1003.4mb 47f 62f
2:36 26 38 mph 1003.5mb 47f 61f
2:30 30 38 mph 1003.4mb 47f 61f
2:24 33 40 mph 1003.4mb 47f 62f
2:00 28 37 mph 1003.6mb 47f 62f
1:48 31 41 mph 1003.7mb 47f 62f
1:36 30 39 mph 1003.9mb 47f 62f
1:24 32 41 mph 1003.9mb 47f 62f
1:00 34 40 mph 1004.1mb 46f 62f
12:54 29 37 mph 1004.2mb 47f 61f
12:48 29 38 mph 1004.2mb 46f 62f
12:42 26 37 mph 1004.4mb 46f 60f
12:36 25 37 mph 1004.5mb 46f 60f
12:30 28 37 mph 1004.5mb 46f 61f
12:24 31 39 mph 1004.6mb 46f 61f
12:18 29 37 mph 1004.6mb 46f 61f
12:12 30 36 mph 1004.7mb 45f 61f
12:06 34 41 mph 1004.7mb 45f 61f
12:00 33 41 mph 1004.7mb 45f 61f
11:54 34 44 mph 1004.8mb 45f 61f
11:48 36 46 mph 1004.8mb 45f 61f
11:42 34 43 mph 1004.8mb 45f 61f
11:36 26 40 mph 1004.9mb 45f 61f
11:30 29 39 mph 1005mb 46f 61f
11:18 28 46 mph 1005.2mb 46f 60f
11:12 29 34 mph 1005.4mb 46f 60f
11:06 33 38 mph 1005.5mb 46f 59f
11:00 29 36 mph 1005.4mb 46f 58f
10:54 31 38 mph 1005.3mb 46f 58f
10:48 31 37 mph 1005.4mb 46f 57f
10:42 28 32 mph 1005.5mb 46f 56f
10:36 26 32 mph 1005.6mb 46f 56f
10:30 28 33 mph 1005.6mb 46f 56f
10:24 29 33 mph 1005.8mb 46f 56f
10:18 31 37 mph 1005.9mb 46f 57f
10:12 30 34 mph 1006mb 46f 57f
10:06 26 31 mph 1006.3mb 45f 56f
10:00 28 33 mph 1006.3mb 45f 56f
9:54 22 29 mph 1006.2mb 45f 56f
9:48 23 28 mph 1006.4mb 46f 56f
9:42 26 30 mph 1006.5mb 46f 57f
9:36 25 34 mph 1006.6mb 46f 56f
9:30 31 36 mph 1006.7mb 45f 57f
9:24 32 38 mph 1006.7mb 46f 57f
9:18 34 44 mph 1006.7mb 46f 57f
9:12 32 38 mph 1006.8mb 46f 57f
9:06 33 41 mph 1006.9mb 46f 57f
9:00 37 44 mph 1007.1mb 46f 58f
8:54 28 33 mph 1007.4mb 46f 56f
8:48 30 40 mph 1007.5mb 46f 57f
8:42 34 43 mph 1007.6mb 46f 58f
8:36 29 37 mph 1007.6mb 45f 57f
8:30 32 43 mph 1007.8mb 46f 58f
8:24 31 36 mph 1007.6mb 45f 58f
8:18 29 34 mph 1008mb 45f 57f
8:12 29 38 mph 1008.3mb 45f 57f
8:06 30 37 mph 1008.5mb 45f 58f
8:00 31 37 mph 1008.6mb 45f 57f
7:54 31 40 mph 1008.8mb 45f 58f
7:48 31 39 mph 1008.9mb 45f 57f
7:42 30 39 mph 1008.9mb 45f 57f
7:36 36 40 mph 1009mb 45f 58f
7:30 30 40 mph 1009.2mb 45f 58f
7:24 33 43 mph 1008.5mb 45f 58f
7:18 31 37 mph 1009.4mb 45f 58f
7:12 31 36 mph 1010mb 45f 57f
7:06 25 34 mph 1010.2mb 44f 57f
7:00 30 37 mph 1010.4mb 45f 57f
6:54 31 36 mph 1010.8mb 45f 57f
6:48 29 34 mph 1010.9mb 45f 56f
6:42 29 34 mph 1010.8mb 45f 57f
6:36 29 34 mph 1010.9mb 45f 56f
6:30 26 32 mph 1011.1mb 45f 57f
6:24 26 33 mph 1011.3mb 45f 56f
6:18 25 31 mph 1011.3mb 44f 56f
6:12 25 33 mph 1011.5mb 44f 56f
6:06 24 29 mph 1011.6mb 44f 57f
6:00 23 29 mph 1011.6mb 44f 57f
5:54 24 28 mph 1011.6mb 44f 57f
5:48 22 25 mph 1011.6mb 44f 56f
5:42 23 29 mph 1011.8mb 44f 57f
5:36 26 32 mph 1011.8mb 44f 57f
5:30 25 33 mph 1011.9mb 44f 57f
5:24 24 29 mph 1012mb 44f 56f
5:18 25 30 mph 1012mb 44f 56f
5:12 26 30 mph 1012mb 44f 57f
5:06 24 29 mph 1012.1mb 44f 56f
5:00 24 28 mph 1012.2mb 44f 56f
4:54 23 29 mph 1012.4mb 44f 56f
4:48 22 25 mph 1012.5mb 44f 56f
4:42 21 25 mph 1012.5mb 44f 56f
4:36 22 28 mph 1012.6mb 44f 56f
4:30 21 25 mph 1012.9mb 44f 56f
4:24 22 25 mph 1013.2mb 44f 56f
4:18 20 22 mph 1013.5mb 44f 56f
4:12 22 24 mph 1013.7mb 44f 56f
4:06 22 28 mph 1014mb 44f 56f
4:00 22 28 mph 1014.1mb 44f 56f
3:54 22 26 mph 1014.2mb 44f 55f
3:48 21 25 mph 1014.2mb 44f 55f
3:42 20 22 mph 1014.4mb 44f 55f
3:36 18 22 mph 1014.7mb 44f 55f
3:30 16 20 mph 1014.7mb 44f 55f
3:24 5 6 mph 1014.9mb 44f 54f
3:18 3 7 mph 1014.8mb 44f 54f
3:12 3 6 mph 1015.2mb 44f 53f
3:06 1 3 mph 1015.3mb 44f 50f
3:00 1 5 mph 1015.6mb 44f 49f
2:54 2 3 mph 1015.8mb 44f 46f
2:48 3 5 mph 1015.9mb 44f 46f
2:42 5 6 mph 1016.1mb 44f 46f
2:36 5 6 mph 1016.2mb 44f 45f
2:30 3
mph
1016.4mb 44f 45f
2:24 3 5 mph 1016.5mb 44f 45f
2:18 5 6 mph 1016.6mb 44f 46f
2:12 5
mph
1016.6mb 44f 44f
2:06 3 5 mph 1016.8mb 44f 43f
2:00 3 5 mph 1016.9mb 44f 43f
1:54 3
mph
1017mb 44f 43f
1:48 2
mph
1017.2mb 44f 43f
1:42  -  3 mph 1017.2mb 44f 44f
1:36 2
mph
1017.3mb 44f 46f
1:30  -  1 mph 1017.3mb 44f 45f
1:24  -  1 mph 1017.3mb 44f 44f
1:18 1
mph
1017.4mb 44f 45f
1:12  -  1 mph 1017.5mb 44f 45f
1:06 2 5 mph 1017.5mb 44f 45f
1:00 3 5 mph 1017.6mb 44f 44f
12:54 3
mph
1017.6mb 44f 44f
12:48 2
mph
1017.7mb 44f 45f
12:42  -  1 mph 1017.8mb 44f 46f
12:36  -  mph 1018mb 44f 46f
12:30  -  mph 1018mb 44f 47f
12:24  -  mph 1018.2mb 44f 47f
12:18  -  mph 1018.3mb 44f 47f
12:12  -  1 mph 1018.4mb 44f 47f
12:06  -  1 mph 1018.5mb 44f 46f
12:00  -  1 mph 1018.4mb 44f 46f
Dom 11/23 11:54  -  1 mph 1018.5mb 44f 47f
11:48  -  1 mph 1018.7mb 44f 47f
11:42  -  2 mph 1018.9mb 44f 47f
11:36  -  2 mph 1018.9mb 44f 47f
11:30 2 3 mph 1019.1mb 44f 47f
11:24 3
mph
1019.3mb 44f 47f
11:18 3 5 mph 1019.4mb 44f 47f
11:12 3 5 mph 1019.4mb 44f 47f
11:06 3
mph
1019.4mb 44f 47f
11:00 3
mph
1019.4mb 44f 47f
10:54 3 5 mph 1019.4mb 44f 47f
10:48 3 5 mph 1019.6mb 44f 47f
10:42 5 6 mph 1019.7mb 44f 47f
10:36 5
mph
1019.8mb 44f 47f
10:30 3 5 mph 1019.9mb 44f 47f
10:24 5
mph
1020mb 44f 47f
10:18 5 6 mph 1020.1mb 44f 47f
10:12 5
mph
1020.1mb 44f 47f
10:06 3 5 mph 1020.1mb 44f 47f
10:00 5
mph
1020.1mb 44f 47f
9:54 5 6 mph 1020.1mb 44f 47f
9:48 6
mph
1020.1mb 44f 47f
9:42 6
mph
1020.1mb 44f 46f
9:36 5 6 mph 1020.1mb 44f 46f
9:30 5 6 mph 1020.1mb 44f 46f
9:24 6 7 mph 1020.2mb 44f 46f
9:18 6 7 mph 1020.4mb 44f 46f
9:12 7 8 mph 1020.3mb 44f 46f
9:06 8 9 mph 1020.3mb 44f 46f
9:00 8 9 mph 1020.4mb 44f 46f
8:54 8 9 mph 1020.4mb 44f 46f
8:48 6 7 mph 1020.4mb 44f 46f
8:42 7
mph
1020.5mb 44f 46f
8:36 6 7 mph 1020.5mb 44f 47f
8:30 7 8 mph 1020.5mb 44f 47f
8:24 8 9 mph 1020.5mb 44f 47f
8:18 7 8 mph 1020.5mb 44f 47f
8:12 8 9 mph 1020.5mb 44f 47f
8:06 8 9 mph 1020.6mb 44f 47f
8:00 8 9 mph 1020.7mb 44f 47f
7:54 9
mph
1020.8mb 44f 47f
7:48 9
mph
1020.8mb 44f 47f
7:42 6 7 mph 1020.8mb 44f 47f
7:36 7 8 mph 1020.8mb 44f 47f
7:30 9
mph
1020.9mb 44f 47f
7:24 7 8 mph 1020.8mb 44f 47f
7:18 6
mph
1020.7mb 44f 47f
7:12 3
mph
1020.6mb 44f 47f
7:06 2 3 mph 1020.5mb 44f 47f
7:00 3 5 mph 1020.5mb 44f 47f
6:54 5 7 mph 1020.6mb 44f 47f
6:48 7
mph
1020.6mb 44f 47f
6:42 7 8 mph 1020.7mb 44f 47f
6:36 6 8 mph 1020.7mb 44f 48f
6:30 8
mph
1020.9mb 44f 48f
6:24 8
mph
1020.9mb 44f 48f
6:18 8
mph
1020.9mb 44f 48f
6:12 7 9 mph 1020.9mb 44f 48f
6:06 9 11 mph 1021mb 44f 48f
6:00 10 11 mph 1021.1mb 44f 48f
5:54 11 14 mph 1021mb 44f 48f
5:48 13 14 mph 1020.8mb 44f 48f
5:36 9 10 mph 1020.4mb 44f 49f
5:30 9 13 mph 1020.3mb 44f 49f
5:24 10 13 mph 1020.4mb 44f 49f
5:18 10 13 mph 1020.4mb 44f 49f
5:12 11 14 mph 1020.4mb 44f 49f
5:06 11 14 mph 1020.4mb 44f 50f
5:00 11 14 mph 1020.3mb 44f 50f
4:54 11 13 mph 1020.3mb 44f 50f
4:48 9
mph
1020.2mb 44f 50f
4:42 9 11 mph 1020.3mb 44f 50f
4:36 9 11 mph 1020.5mb 44f 50f
4:30 10 14 mph 1020.5mb 44f 50f
4:24 13 14 mph 1020.3mb 44f 50f
4:18 13 15 mph 1020.3mb 44f 50f
4:12 15 16 mph 1020.4mb 44f 50f
4:06 14 15 mph 1020.3mb 44f 50f
4:00 13 14 mph 1020.3mb 44f 51f
3:54 14 15 mph 1020.3mb 44f 51f
3:48 16 17 mph 1020.4mb 44f 52f
3:42 15 17 mph 1020.4mb 44f 51f
3:36 15 17 mph 1020.5mb 44f 51f
3:30 13 15 mph 1020.4mb 44f 51f
3:24 14 16 mph 1020.3mb 44f 50f
3:18 17 18 mph 1020.2mb 44f 51f
3:12 14 15 mph 1020.1mb 44f 50f
3:06 15 17 mph 1019.9mb 44f 50f
3:00 16 18 mph 1019.9mb 44f 50f
2:54 15 17 mph 1019.8mb 44f 50f
2:48 14 16 mph 1019.7mb 44f 50f
2:42 16 17 mph 1019.6mb 44f 51f
2:36 15 16 mph 1019.7mb 44f 50f
2:30 13 17 mph 1019.8mb 44f 51f
2:24 14 16 mph 1019.6mb 44f 52f
2:18 14 15 mph 1019.8mb 44f 51f
2:12 14 15 mph 1019.7mb 44f 52f
2:06 7 10 mph 1019.8mb 44f 51f
2:00 10 11 mph 1019.8mb 44f 55f
1:54 9 10 mph 1019.9mb 44f 54f
1:48 8 10 mph 1020mb 44f 51f
1:42 9 10 mph 1019.8mb 44f 53f
1:36 9 10 mph 1019.9mb 44f 52f
1:30 8 10 mph 1019.9mb 44f 52f
1:24 10
mph
1019.9mb 44f 52f
1:18 8 9 mph 1019.8mb 44f 52f
1:12 6 7 mph 1019.8mb 44f 53f
1:06 6 7 mph 1019.8mb 44f 54f
1:00 7
mph
1019.9mb 44f 54f
12:54 8
mph
1019.9mb 44f 54f
12:48 9
mph
1019.9mb 44f 53f
12:42 7 8 mph 1020mb 44f 51f
12:36 9 10 mph 1020.1mb 44f 51f
12:30 7 8 mph 1020.1mb 44f 51f
12:24 8
mph
1020.1mb 44f 51f
12:18 9 10 mph 1020.3mb 44f 51f
12:12 9 11 mph 1020.5mb 44f 50f
12:06 11 13 mph 1020.6mb 44f 50f
12:00 13 14 mph 1020.6mb 44f 50f
11:54 11 15 mph 1020.7mb 44f 49f
11:48 11 14 mph 1020.7mb 44f 50f
11:42 11 16 mph 1020.7mb 44f 50f
11:36 15 16 mph 1020.8mb 44f 50f
11:30 14 15 mph 1020.8mb 44f 49f
11:24 13 14 mph 1020.8mb 43f 49f
11:18 14 15 mph 1020.9mb 43f 49f
11:12 11 14 mph 1020.9mb 43f 49f
11:06 14 16 mph 1020.9mb 43f 49f
11:00 16 17 mph 1021mb 43f 49f
10:54 15 17 mph 1021.1mb 43f 49f
10:48 15 18 mph 1021.1mb 43f 48f
10:42 14 16 mph 1021.1mb 43f 49f
10:36 14 15 mph 1021.3mb 43f 49f
10:30 15 16 mph 1021.4mb 43f 49f
10:18 10 11 mph 1021.4mb 43f 48f
10:12 9 10 mph 1021.5mb 43f 48f
10:06 8 10 mph 1021.8mb 43f 47f
10:00 9 14 mph 1021.7mb 43f 47f
9:54 10 13 mph 1021.7mb 43f 47f
9:42 13 15 mph 1021.7mb 44f 47f
9:36 10 16 mph 1021.6mb 44f 47f
9:30 11 14 mph 1021.6mb 44f 47f
9:24 11 15 mph 1021.5mb 44f 47f
9:18 14 18 mph 1021.5mb 44f 47f
9:12 13 17 mph 1021.5mb 44f 47f
9:06 13 15 mph 1021.4mb 44f 46f
9:00 11 15 mph 1021.3mb 44f 46f
8:54 13
mph
1021.3mb 44f 46f
8:48 13 17 mph 1021.5mb 44f 46f
8:42 15 17 mph 1021.5mb 44f 46f
8:36 15 20 mph 1021.4mb 43f 46f
8:30 14 17 mph 1021.3mb 43f 46f
8:24 15 18 mph 1021.2mb 43f 46f
8:18 16 17 mph 1021.4mb 43f 46f
8:12 15 18 mph 1021.2mb 43f 46f
8:06 14 18 mph 1021.1mb 43f 46f
8:00 14 15 mph 1021.1mb 43f 46f
7:54 11 14 mph 1021.1mb 43f 46f
7:48 14 18 mph 1021.2mb 43f 46f
7:42 13 15 mph 1021.2mb 43f 46f
7:36 13 15 mph 1021mb 43f 46f
7:30 11 15 mph 1021mb 43f 46f
7:24 13 16 mph 1020.8mb 43f 46f
7:18 14 15 mph 1020.7mb 43f 46f
7:12 13 15 mph 1020.7mb 43f 46f
7:06 11 14 mph 1020.8mb 43f 45f
7:00 10 15 mph 1020.9mb 43f 45f
6:54 11 15 mph 1020.9mb 43f 45f
6:48 10 14 mph 1020.8mb 43f 45f
6:42 11 15 mph 1020.5mb 43f 45f
6:36 10 13 mph 1020.4mb 43f 45f
6:30 9 13 mph 1020.2mb 43f 45f
6:24 9 10 mph 1020.3mb 43f 45f
6:18 9 11 mph 1020.3mb 43f 45f
6:12 9 11 mph 1020.4mb 43f 45f
6:06 10 13 mph 1020.2mb 43f 45f
6:00 11 14 mph 1020.2mb 43f 45f
5:54 10 13 mph 1020.2mb 43f 45f
5:48 11 14 mph 1020.3mb 43f 45f
5:42 10 15 mph 1020.3mb 43f 45f
5:36 11 14 mph 1020.3mb 43f 45f
5:30 10 15 mph 1020.4mb 43f 45f
5:24 13 14 mph 1020.3mb 43f 44f
5:18 13 17 mph 1020.2mb 43f 45f
5:12 13 16 mph 1020.2mb 43f 45f
5:06 13 14 mph 1020.1mb 43f 45f
5:00 10 14 mph 1020.1mb 43f 45f
4:54 13 15 mph 1020.1mb 43f 45f
4:48 13 17 mph 1020.1mb 43f 45f
4:42 14 16 mph 1020.2mb 43f 45f
4:36 13 15 mph 1020.2mb 43f 45f
4:30 11 15 mph 1020.2mb 43f 45f
4:24 11 14 mph 1020.2mb 43f 45f
4:18 14 16 mph 1020.2mb 43f 45f
4:12 10 13 mph 1020.2mb 43f 45f
4:06 10 13 mph 1020.2mb 43f 45f
4:00 9 15 mph 1020.2mb 43f 45f
3:54 9 15 mph 1020.2mb 43f 45f
3:48 11 14 mph 1020.1mb 43f 45f
3:42 11 14 mph 1020.2mb 43f 45f
3:36 13 14 mph 1020.2mb 43f 45f
3:30 13 16 mph 1020mb 43f 45f
3:24 13 16 mph 1019.9mb 43f 45f
3:18 15 18 mph 1019.7mb 43f 45f
3:12 15 17 mph 1019.7mb 43f 45f
3:06 14 20 mph 1019.8mb 43f 45f
3:00 17 21 mph 1019.7mb 43f 45f
2:54 16 20 mph 1019.6mb 43f 46f
2:48 16 22 mph 1019.6mb 43f 45f
2:42 17 21 mph 1019.6mb 43f 46f
2:36 18 22 mph 1019.7mb 43f 46f
2:30 17 21 mph 1019.9mb 43f 46f
2:24 17 22 mph 1019.8mb 43f 46f
2:18 15 23 mph 1019.8mb 43f 45f
2:12 18 25 mph 1019.7mb 43f 46f
2:06 18 22 mph 1019.7mb 43f 45f
2:00 16 23 mph 1019.5mb 43f 45f
1:54 18 21 mph 1019.4mb 43f 45f
1:48 17 24 mph 1019.4mb 43f 45f
1:42 18 22 mph 1019.4mb 44f 46f
1:36 17 21 mph 1019.5mb 44f 45f
1:30 16 20 mph 1019.5mb 44f 46f
1:24 18 22 mph 1019.4mb 44f 46f
1:18 17 21 mph - - -
1:12 21 24 mph 1019.3mb 44f 46f
1:00 16 23 mph 1019.5mb 44f 46f
12:54 17 21 mph 1019.6mb 44f 46f
12:42 20 25 mph 1019.5mb 44f 46f
12:36 21 25 mph 1019.4mb 44f 46f
12:30 22 26 mph 1019.5mb 44f 46f
12:24 21 25 mph 1019.5mb 44f 45f
12:18 18 22 mph 1019.6mb 44f 45f
12:12 20 23 mph 1019.7mb 44f 45f
12:06 20 25 mph 1019.7mb 44f 45f
12:00 17 22 mph 1019.7mb 44f 45f
Sáb 11/22 11:54 20 24 mph 1019.7mb 44f 45f
11:48 22 26 mph 1019.7mb 44f 45f
11:42 21 24 mph 1019.8mb 44f 45f
11:36 18 25 mph 1019.9mb 44f 45f
11:30 21 25 mph 1019.9mb 44f 45f
11:24 23 26 mph 1019.9mb 44f 46f
11:18 22 28 mph 1019.9mb 44f 45f
11:12 22 24 mph 1019.9mb 44f 45f
11:06 21 25 mph 1020mb 44f 45f
10:54 18 25 mph 1019.9mb 44f 45f
10:48 18 23 mph 1019.8mb 44f 45f
10:42 23 30 mph 1019.7mb 44f 45f
10:36 18 28 mph 1019.6mb 43f 45f
10:30 22 29 mph 1019.7mb 43f 46f
10:24 17 23 mph 1019.8mb 43f 45f
10:18 20 24 mph 1019.8mb 44f 45f
10:12 18 24 mph 1019.9mb 43f 45f
10:06 21 25 mph 1019.8mb 43f 45f
10:00 21 26 mph 1019.9mb 43f 45f
9:54 17 24 mph 1020.1mb 43f 45f
9:48 20 25 mph 1020.1mb 43f 45f
9:42 22 28 mph 1020.1mb 43f 45f
9:36 21 25 mph 1020.1mb 43f 45f
9:30 17 23 mph 1020.1mb 43f 45f
9:24 17 23 mph 1020.1mb 43f 45f
9:18 17 23 mph 1020mb 43f 45f
9:12 17 24 mph 1020.1mb 43f 45f
9:06 17 21 mph 1020.2mb 43f 45f
9:00 20 22 mph 1020.2mb 43f 45f
8:54 16 24 mph 1020.3mb 43f 45f
8:48 17 21 mph 1020.3mb 43f 45f
8:42 17 21 mph 1020.3mb 43f 44f
8:36 16 18 mph 1020.3mb 43f 44f
8:30 16 22 mph 1020.3mb 43f 44f
8:24 17 28 mph 1020.5mb 43f 44f
8:18 22 28 mph 1020.3mb 43f 45f
8:12 20 30 mph 1020.3mb 43f 44f
8:06 25 29 mph 1019.8mb 43f 44f
8:00 24 33 mph 1019.9mb 43f 44f
7:54 22 32 mph 1020.2mb 43f 44f
7:48 24 30 mph 1020.1mb 43f 44f
7:42 24 34 mph 1020.4mb 43f 44f
7:36 24 32 mph 1020.3mb 43f 44f
7:30 25 31 mph 1020.5mb 43f 44f
7:24 24 28 mph 1020.7mb 43f 44f
7:18 25 31 mph 1020.9mb 43f 44f
7:12 26 31 mph 1021mb 43f 43f
7:06 22 29 mph 1021.2mb 43f 43f
7:00 22 29 mph 1021.2mb 43f 43f
6:54 26 33 mph 1021.2mb 43f 43f
6:48 22 28 mph 1021mb 43f 43f
6:42 21 28 mph 1021.1mb 43f 43f
6:36 22 29 mph 1021.1mb 43f 42f
6:30 23 29 mph 1021.2mb 43f 42f
6:24 24 30 mph 1021.4mb 43f 42f
6:18 23 29 mph 1021.4mb 43f 42f
6:12 22 26 mph 1021.8mb 43f 42f
6:06 22 25 mph 1021.9mb 43f 42f
6:00 22 28 mph 1022mb 43f 42f
5:54 21 25 mph 1022mb 44f 42f
5:48 18 24 mph 1022.2mb 44f 41f
5:42 23 28 mph 1022.1mb 44f 41f
5:36 18 24 mph 1022.3mb 44f 41f
5:30 23 28 mph 1022.3mb 44f 41f
5:24 20 23 mph 1022.3mb 44f 40f
5:18 20 25 mph 1022.4mb 44f 40f
5:12 22 26 mph 1022.4mb 44f 40f
5:06 22 26 mph 1022.5mb 44f 40f
5:00 22 26 mph 1022.5mb 44f 40f
4:54 22 26 mph 1022.6mb 44f 40f
4:48 20 28 mph 1022.8mb 44f 40f
4:42 20 24 mph 1023mb 44f 40f
4:36 21 25 mph 1022.8mb 44f 40f
4:30 17 23 mph 1022.6mb 44f 40f
4:24 20 23 mph 1022.7mb 44f 40f
4:18 20 22 mph 1022.8mb 44f 40f
4:12 20 24 mph 1023.1mb 44f 40f
4:06 21 25 mph 1023.1mb 44f 40f
4:00 21 25 mph 1023.1mb 44f 40f
3:54 22 26 mph 1023mb 44f 40f
3:48 22 29 mph 1023mb 44f 40f
3:42 20 29 mph 1023.1mb 44f 40f
3:36 25 31 mph 1023mb 44f 40f
3:30 22 24 mph 1023.1mb 44f 40f
3:24 20 24 mph 1023.2mb 44f 41f
3:18 17 21 mph 1023.3mb 44f 41f
3:12 18 22 mph 1023.3mb 44f 41f
3:06 20 24 mph 1023.2mb 44f 41f
3:00 21 24 mph 1023.3mb 44f 41f
2:54 17 23 mph 1023.2mb 44f 42f
2:48 18 24 mph 1023.2mb 44f 41f
2:42 17 23 mph 1023.3mb 44f 41f
2:36 22 28 mph 1023.4mb 44f 41f
2:30 23 33 mph 1023.3mb 44f 41f
2:24 23 29 mph 1023.4mb 44f 41f